createdAt,value
2019-04-06T00:00:42.608Z,5.49
2019-04-06T00:03:52.000Z,5.65
2019-04-06T00:06:59.783Z,5.60
2019-04-06T00:10:08.641Z,5.54
2019-04-06T00:13:16.140Z,5.35
2019-04-06T00:16:23.539Z,5.63
2019-04-06T00:19:31.893Z,5.69
2019-04-06T00:22:40.185Z,5.78
2019-04-06T00:25:47.468Z,5.27
2019-04-06T00:28:54.949Z,5.23
2019-04-06T00:32:13.161Z,5.33
2019-04-06T00:35:20.881Z,5.39
2019-04-06T00:38:28.357Z,5.04
2019-04-06T00:41:35.925Z,4.85
2019-04-06T00:44:43.242Z,4.71
2019-04-06T00:47:50.648Z,4.54
2019-04-06T00:50:58.408Z,4.43
2019-04-06T00:54:05.979Z,4.26
2019-04-06T00:57:13.391Z,4.22
2019-04-06T01:00:20.972Z,4.18
2019-04-06T01:03:28.252Z,4.18
2019-04-06T01:06:35.974Z,4.36
2019-04-06T01:09:43.488Z,4.13
2019-04-06T01:12:50.920Z,4.26
2019-04-06T01:15:58.867Z,4.08
2019-04-06T01:19:06.669Z,4.03
2019-04-06T01:22:14.094Z,4.09
2019-04-06T01:25:21.972Z,4.07
2019-04-06T01:28:29.476Z,4.07
2019-04-06T01:31:37.322Z,4.18
2019-04-06T01:34:44.746Z,4.37
2019-04-06T01:37:52.630Z,4.47
2019-04-06T01:41:00.479Z,4.47
2019-04-06T01:44:07.763Z,4.43
2019-04-06T01:47:15.448Z,4.23
2019-04-06T01:50:23.085Z,4.17
2019-04-06T01:53:30.643Z,4.16
2019-04-06T01:56:37.924Z,4.19
2019-04-06T01:59:45.519Z,4.16
2019-04-06T02:02:53.363Z,4.13
2019-04-06T02:06:01.787Z,4.10
2019-04-06T02:09:09.588Z,4.18
2019-04-06T02:12:16.984Z,4.23
2019-04-06T02:15:24.821Z,4.36
2019-04-06T02:18:32.081Z,4.16
2019-04-06T02:21:39.459Z,4.14
2019-04-06T02:24:46.739Z,4.14
2019-04-06T02:27:54.231Z,4.23
2019-04-06T02:31:06.543Z,4.04
2019-04-06T02:34:28.515Z,4.09
2019-04-06T02:38:00.708Z,4.10
2019-04-06T02:41:13.524Z,4.31
2019-04-06T02:44:20.901Z,4.47
2019-04-06T02:47:28.443Z,4.52
2019-04-06T02:50:36.465Z,4.46
2019-04-06T02:53:43.990Z,4.35
2019-04-06T02:56:51.366Z,4.47
2019-04-06T02:59:59.151Z,4.57
2019-04-06T03:03:06.756Z,4.19
2019-04-06T03:06:14.565Z,4.12
2019-04-06T03:09:22.234Z,4.06
2019-04-06T03:12:30.538Z,4.08
2019-04-06T03:15:39.177Z,4.06
2019-04-06T03:18:47.705Z,4.05
2019-04-06T03:21:55.089Z,4.03
2019-04-06T03:25:03.141Z,3.96
2019-04-06T03:28:12.891Z,3.97
2019-04-06T03:31:25.213Z,4.06
2019-04-06T03:34:29.983Z,4.06
2019-04-06T03:37:38.577Z,4.15
2019-04-06T03:40:45.947Z,4.11
2019-04-06T03:43:53.584Z,4.06
2019-04-06T03:47:00.786Z,3.99
2019-04-06T03:50:09.111Z,3.97
2019-04-06T03:53:16.621Z,4.01
2019-04-06T03:56:24.351Z,4.09
2019-04-06T03:59:31.780Z,4.14
2019-04-06T04:02:39.007Z,4.19
2019-04-06T04:05:46.186Z,4.22
2019-04-06T04:08:53.827Z,4.35
2019-04-06T04:12:01.732Z,4.39
2019-04-06T04:15:09.293Z,4.28
2019-04-06T04:18:16.480Z,4.17
2019-04-06T04:21:24.000Z,4.27
2019-04-06T04:24:31.768Z,4.45
2019-04-06T04:27:40.751Z,4.52
2019-04-06T04:30:48.457Z,4.61
2019-04-06T04:33:56.041Z,4.70
2019-04-06T04:37:03.859Z,4.73
2019-04-06T04:40:11.584Z,4.79
2019-04-06T04:43:19.156Z,4.90
2019-04-06T04:46:26.777Z,4.95
2019-04-06T04:49:34.853Z,5.01
2019-04-06T04:52:42.158Z,4.68
2019-04-06T04:55:50.617Z,4.88
2019-04-06T04:58:58.762Z,4.94
2019-04-06T05:02:06.688Z,5.04
2019-04-06T05:05:14.408Z,5.18
2019-04-06T05:08:21.722Z,5.14
2019-04-06T05:11:29.609Z,5.18
2019-04-06T05:14:58.582Z,5.29
2019-04-06T05:18:05.919Z,5.30
2019-04-06T05:21:13.588Z,5.54
2019-04-06T05:24:21.997Z,5.34
2019-04-06T05:27:29.553Z,5.62
2019-04-06T05:30:36.908Z,5.68
2019-04-06T05:33:44.695Z,5.77
2019-04-06T05:36:52.118Z,5.86
2019-04-06T05:39:59.600Z,5.98
2019-04-06T05:43:06.765Z,5.96
2019-04-06T05:46:14.089Z,5.97
2019-04-06T05:49:22.207Z,5.97
2019-04-06T05:52:30.769Z,6.11
2019-04-06T05:55:38.594Z,6.27
2019-04-06T05:58:46.817Z,6.34
2019-04-06T06:01:54.731Z,6.28
2019-04-06T06:05:02.729Z,6.36
2019-04-06T06:08:10.327Z,6.55
2019-04-06T06:11:18.354Z,6.78
2019-04-06T06:14:26.995Z,6.89
2019-04-06T06:17:34.951Z,6.79
2019-04-06T06:20:42.632Z,6.85
2019-04-06T06:23:50.204Z,6.95
2019-04-06T06:26:58.105Z,7.22
2019-04-06T06:30:06.761Z,7.45
2019-04-06T06:33:14.822Z,7.54
2019-04-06T06:36:22.331Z,7.56
2019-04-06T06:39:29.856Z,7.79
2019-04-06T06:42:37.334Z,7.99
2019-04-06T06:45:44.802Z,8.13
2019-04-06T06:48:53.457Z,8.30
2019-04-06T06:52:01.442Z,8.16
2019-04-06T06:55:09.248Z,8.44
2019-04-06T06:58:25.362Z,8.52
2019-04-06T07:01:27.334Z,8.59
2019-04-06T07:04:34.680Z,8.54
2019-04-06T07:07:42.022Z,8.55
2019-04-06T07:10:49.616Z,8.80
2019-04-06T07:13:58.276Z,9.07
2019-04-06T07:17:05.843Z,9.20
2019-04-06T07:20:13.899Z,9.30
2019-04-06T07:23:21.300Z,9.25
2019-04-06T07:26:29.091Z,9.44
2019-04-06T07:29:36.257Z,9.54
2019-04-06T07:32:43.887Z,9.49
2019-04-06T07:35:51.982Z,9.79
2019-04-06T07:38:59.658Z,9.62
2019-04-06T07:42:07.074Z,10.06
2019-04-06T07:45:14.694Z,10.20
2019-04-06T07:48:22.625Z,10.40
2019-04-06T07:51:30.067Z,10.42
2019-04-06T07:54:37.792Z,10.45
2019-04-06T07:57:45.273Z,10.67
2019-04-06T08:00:52.781Z,11.14
2019-04-06T08:04:00.209Z,11.39
2019-04-06T08:07:07.897Z,11.66
2019-04-06T08:10:15.933Z,11.50
2019-04-06T08:13:24.119Z,11.73
2019-04-06T08:16:32.692Z,12.15
2019-04-06T08:19:40.407Z,12.54
2019-04-06T08:22:48.547Z,12.76
2019-04-06T08:25:55.849Z,12.39
2019-04-06T08:29:03.596Z,13.24
2019-04-06T08:32:11.306Z,13.07
2019-04-06T08:35:25.110Z,13.20
2019-04-06T08:38:29.353Z,13.70
2019-04-06T08:41:37.182Z,13.32
2019-04-06T08:44:45.010Z,12.91
2019-04-06T08:47:52.767Z,13.75
2019-04-06T08:51:00.301Z,14.48
2019-04-06T08:54:07.549Z,14.58
2019-04-06T08:57:14.768Z,14.74
2019-04-06T09:00:22.253Z,14.61
2019-04-06T09:03:29.848Z,14.77
2019-04-06T09:06:37.033Z,15.23
2019-04-06T09:09:44.892Z,15.14
2019-04-06T09:12:52.587Z,15.09
2019-04-06T09:16:00.121Z,15.37
2019-04-06T09:19:07.503Z,15.40
2019-04-06T09:22:15.149Z,15.05
2019-04-06T09:25:22.535Z,14.46
2019-04-06T09:28:29.929Z,14.38
2019-04-06T09:31:37.137Z,13.77
2019-04-06T09:34:44.862Z,13.87
2019-04-06T09:37:52.242Z,13.50
2019-04-06T09:40:59.471Z,13.48
2019-04-06T09:44:11.180Z,13.50
2019-04-06T09:47:28.718Z,13.52
2019-04-06T09:51:11.057Z,13.36
2019-04-06T09:54:30.131Z,13.24
2019-04-06T09:57:48.399Z,13.19
2019-04-06T10:01:14.845Z,13.54
2019-04-06T10:04:47.557Z,13.93
2019-04-06T10:08:15.336Z,14.37
2019-04-06T10:11:31.536Z,13.88
2019-04-06T10:15:01.503Z,13.40
2019-04-06T10:18:24.572Z,13.42
2019-04-06T10:21:51.785Z,13.56
2019-04-06T10:25:10.977Z,13.36
2019-04-06T10:28:36.313Z,13.69
2019-04-06T10:32:08.762Z,14.20
2019-04-06T10:35:28.923Z,14.52
2019-04-06T10:39:04.808Z,14.16
2019-04-06T10:42:28.987Z,14.67
2019-04-06T10:45:47.028Z,14.92
2019-04-06T10:49:05.704Z,15.01
2019-04-06T10:52:23.944Z,14.97
2019-04-06T10:55:39.773Z,15.25
2019-04-06T10:59:08.339Z,15.57
2019-04-06T11:02:33.989Z,15.87
2019-04-06T11:05:55.591Z,15.43
2019-04-06T11:09:27.362Z,15.50
2019-04-06T11:12:53.219Z,15.14
2019-04-06T11:16:09.497Z,14.66
2019-04-06T11:19:25.794Z,14.61
2019-04-06T11:22:51.100Z,14.66
2019-04-06T11:26:21.157Z,14.27
2019-04-06T11:29:43.233Z,14.54
2019-04-06T11:33:09.003Z,14.59
2019-04-06T11:36:51.409Z,14.39
2019-04-06T11:40:17.062Z,14.73
2019-04-06T11:43:43.249Z,15.06
2019-04-06T11:46:57.688Z,14.65
2019-04-06T11:50:18.259Z,14.20
2019-04-06T11:53:51.294Z,14.42
2019-04-06T11:57:25.224Z,14.55
2019-04-06T12:00:50.954Z,14.56
2019-04-06T12:04:17.968Z,14.57
2019-04-06T12:07:35.638Z,14.77
2019-04-06T12:10:49.915Z,14.97
2019-04-06T12:14:15.601Z,14.79
2019-04-06T12:17:37.161Z,14.76
2019-04-06T12:21:13.139Z,14.98
2019-04-06T12:24:43.008Z,15.05
2019-04-06T12:28:12.625Z,14.87
2019-04-06T12:31:37.438Z,14.80
2019-04-06T12:34:53.314Z,14.71
2019-04-06T12:38:19.024Z,14.72
2019-04-06T12:41:40.445Z,14.77
2019-04-06T12:45:06.116Z,14.81
2019-04-06T12:48:32.054Z,15.00
2019-04-06T12:51:48.345Z,15.24
2019-04-06T12:55:18.708Z,15.29
2019-04-06T12:59:04.125Z,15.58
2019-04-06T13:02:28.023Z,15.62
2019-04-06T13:06:03.727Z,16.05
2019-04-06T13:09:22.238Z,15.99
2019-04-06T13:12:36.922Z,16.16
2019-04-06T13:16:02.948Z,16.38
2019-04-06T13:19:28.728Z,16.49
2019-04-06T13:22:54.419Z,16.45
2019-04-06T13:26:20.190Z,16.31
2019-04-06T13:29:33.854Z,16.25
2019-04-06T13:32:53.541Z,16.00
2019-04-06T13:36:20.279Z,16.07
2019-04-06T13:39:55.891Z,15.71
2019-04-06T13:43:15.142Z,15.88
2019-04-06T13:46:33.257Z,15.95
2019-04-06T13:50:03.125Z,16.04
2019-04-06T13:53:22.559Z,16.17
2019-04-06T13:56:55.172Z,16.20
2019-04-06T14:00:26.739Z,16.19
2019-04-06T14:04:05.816Z,16.28
2019-04-06T14:07:26.979Z,16.16
2019-04-06T14:11:02.244Z,16.22
2019-04-06T14:14:29.470Z,16.12
2019-04-06T14:17:56.674Z,16.20
2019-04-06T14:21:13.838Z,16.13
2019-04-06T14:24:34.114Z,16.13
2019-04-06T14:28:16.312Z,16.15
2019-04-06T14:31:41.686Z,16.22
2019-04-06T14:35:09.635Z,16.01
2019-04-06T14:38:39.301Z,16.20
2019-04-06T14:42:05.013Z,16.17
2019-04-06T14:45:23.536Z,16.06
2019-04-06T14:48:38.956Z,15.79
2019-04-06T14:52:18.659Z,15.61
2019-04-06T14:55:33.544Z,15.50
2019-04-06T14:58:59.072Z,15.58
2019-04-06T15:02:26.439Z,15.47
2019-04-06T15:05:52.902Z,15.59
2019-04-06T15:09:09.878Z,15.77
2019-04-06T15:12:43.282Z,15.77
2019-04-06T15:16:00.303Z,15.78
2019-04-06T15:19:26.121Z,15.77
2019-04-06T15:22:52.203Z,15.80
2019-04-06T15:26:10.833Z,15.74
2019-04-06T15:29:56.480Z,15.55
2019-04-06T15:33:22.817Z,15.47
2019-04-06T15:36:53.291Z,15.38
2019-04-06T15:40:19.493Z,15.34
2019-04-06T15:43:35.328Z,15.33
2019-04-06T15:47:03.345Z,15.24
2019-04-06T15:50:34.989Z,15.20
2019-04-06T15:54:05.546Z,15.17
2019-04-06T15:57:34.522Z,15.06
2019-04-06T16:01:02.051Z,15.07
2019-04-06T16:04:42.149Z,15.02
2019-04-06T16:08:18.674Z,15.10
2019-04-06T16:11:44.286Z,15.14
2019-04-06T16:15:09.002Z,14.98
2019-04-06T16:18:45.386Z,14.80
2019-04-06T16:21:59.589Z,14.79
2019-04-06T16:25:26.281Z,14.78
2019-04-06T16:28:59.073Z,14.66
2019-04-06T16:32:16.449Z,14.55
2019-04-06T16:35:32.184Z,14.49
2019-04-06T16:38:50.270Z,14.41
2019-04-06T16:42:09.303Z,14.32
2019-04-06T16:45:39.399Z,14.29
2019-04-06T16:48:57.099Z,14.16
2019-04-06T16:52:27.666Z,14.07
2019-04-06T16:55:46.678Z,14.13
2019-04-06T16:59:11.060Z,14.10
2019-04-06T17:02:30.758Z,13.94
2019-04-06T17:05:51.598Z,13.97
2019-04-06T17:09:22.062Z,13.78
2019-04-06T17:12:46.598Z,13.76
2019-04-06T17:16:11.261Z,13.67
2019-04-06T17:19:38.499Z,13.52
2019-04-06T17:22:54.990Z,13.46
2019-04-06T17:26:27.357Z,13.26
2019-04-06T17:29:55.324Z,13.16
2019-04-06T17:33:28.573Z,13.01
2019-04-06T17:36:49.333Z,12.79
2019-04-06T17:40:15.615Z,12.73
2019-04-06T17:43:41.576Z,12.62
2019-04-06T17:46:57.269Z,12.37
2019-04-06T17:50:33.724Z,12.25
2019-04-06T17:53:50.258Z,12.22
2019-04-06T17:57:11.653Z,12.10
2019-04-06T18:00:38.483Z,12.07
2019-04-06T18:04:04.535Z,11.90
2019-04-06T18:07:32.302Z,11.65
2019-04-06T18:11:09.107Z,11.69
2019-04-06T18:14:18.501Z,11.69
2019-04-06T18:17:26.629Z,11.58
2019-04-06T18:20:34.938Z,11.56
2019-04-06T18:23:42.749Z,11.48
2019-04-06T18:26:50.723Z,11.38
2019-04-06T18:29:59.995Z,11.20
2019-04-06T18:33:10.861Z,11.14
2019-04-06T18:36:20.679Z,11.19
2019-04-06T18:39:28.999Z,11.08
2019-04-06T18:42:37.382Z,11.02
2019-04-06T18:45:44.924Z,10.92
2019-04-06T18:48:52.901Z,10.85
2019-04-06T18:52:00.968Z,10.96
2019-04-06T18:55:08.764Z,10.71
2019-04-06T18:58:16.552Z,10.67
2019-04-06T19:01:24.293Z,10.75
2019-04-06T19:04:32.894Z,10.53
2019-04-06T19:07:40.798Z,10.35
2019-04-06T19:10:48.798Z,10.28
2019-04-06T19:13:56.629Z,10.41
2019-04-06T19:17:04.566Z,10.52
2019-04-06T19:20:12.910Z,10.54
2019-04-06T19:23:20.593Z,10.38
2019-04-06T19:26:28.805Z,10.32
2019-04-06T19:29:36.650Z,10.30
2019-04-06T19:32:44.205Z,10.29
2019-04-06T19:35:52.876Z,10.25
2019-04-06T19:39:00.631Z,10.18
2019-04-06T19:42:09.264Z,10.01
2019-04-06T19:45:17.035Z,10.04
2019-04-06T19:48:24.793Z,9.97
2019-04-06T19:51:33.148Z,9.92
2019-04-06T19:54:41.406Z,9.95
2019-04-06T19:57:48.852Z,9.94
2019-04-06T20:00:56.369Z,9.97
2019-04-06T20:04:04.636Z,9.83
2019-04-06T20:07:12.911Z,9.74
2019-04-06T20:10:20.282Z,9.65
2019-04-06T20:13:29.483Z,9.50
2019-04-06T20:16:38.459Z,9.28
2019-04-06T20:19:46.149Z,9.26
2019-04-06T20:22:53.912Z,9.17
2019-04-06T20:26:02.405Z,9.08
2019-04-06T20:29:10.460Z,9.00
2019-04-06T20:32:18.722Z,9.06
2019-04-06T20:35:26.737Z,8.96
2019-04-06T20:38:35.701Z,8.75
2019-04-06T20:41:43.843Z,8.69
2019-04-06T20:44:52.706Z,8.49
2019-04-06T20:48:00.202Z,8.30
2019-04-06T20:51:08.034Z,8.18
2019-04-06T20:57:25.667Z,7.95
2019-04-06T21:00:34.626Z,7.88
2019-04-06T21:03:42.807Z,7.85
2019-04-06T21:06:50.609Z,8.04
2019-04-06T21:09:58.472Z,7.95
2019-04-06T21:13:06.608Z,7.88
2019-04-06T21:16:15.172Z,8.04
2019-04-06T21:19:22.974Z,8.08
2019-04-06T21:22:30.680Z,8.06
2019-04-06T21:25:38.782Z,8.11
2019-04-06T21:28:46.566Z,8.16
2019-04-06T21:31:54.459Z,8.20
2019-04-06T21:35:05.465Z,8.30
2019-04-06T21:38:13.452Z,8.32
2019-04-06T21:41:20.819Z,8.21
2019-04-06T21:44:28.173Z,7.98
2019-04-06T21:47:36.145Z,7.87
2019-04-06T21:50:43.648Z,7.99
2019-04-06T21:53:51.719Z,7.93
2019-04-06T21:56:59.548Z,7.90
2019-04-06T22:00:08.879Z,7.90
2019-04-06T22:03:16.683Z,7.88
2019-04-06T22:06:25.766Z,7.95
2019-04-06T22:09:33.861Z,7.65
2019-04-06T22:12:41.648Z,7.72
2019-04-06T22:15:48.958Z,7.88
2019-04-06T22:18:56.498Z,7.63
2019-04-06T22:22:04.007Z,7.58
2019-04-06T22:25:12.156Z,7.45
2019-04-06T22:28:20.044Z,7.36
2019-04-06T22:31:27.810Z,7.36
2019-04-06T22:34:39.880Z,6.95
2019-04-06T22:37:44.983Z,6.88
2019-04-06T22:40:52.964Z,6.87
2019-04-06T22:44:00.757Z,6.83
2019-04-06T22:47:09.057Z,6.73
2019-04-06T22:50:16.579Z,6.75
2019-04-06T22:53:23.947Z,6.57
2019-04-06T22:56:31.500Z,6.49
2019-04-06T22:59:39.204Z,6.51
2019-04-06T23:02:57.457Z,6.58
2019-04-06T23:06:08.519Z,6.50
2019-04-06T23:09:16.570Z,6.44
2019-04-06T23:12:24.598Z,6.53
2019-04-06T23:15:32.647Z,6.52
2019-04-06T23:18:40.036Z,6.44
2019-04-06T23:21:47.572Z,6.33
2019-04-06T23:24:54.986Z,6.22
2019-04-06T23:28:02.384Z,6.18
2019-04-06T23:31:09.849Z,6.09
2019-04-06T23:34:18.020Z,6.30
2019-04-06T23:37:25.734Z,6.37
2019-04-06T23:40:33.760Z,6.01
2019-04-06T23:43:41.538Z,5.86
2019-04-06T23:46:48.809Z,5.93
2019-04-06T23:49:56.278Z,5.77
2019-04-06T23:53:04.239Z,5.64
2019-04-06T23:56:12.052Z,5.65
2019-04-06T23:59:19.994Z,5.53
